createdAt,value
2023-05-22T00:00:16.729Z,57.12
2023-05-22T00:02:43.677Z,52.65
2023-05-22T00:05:10.443Z,56.26
2023-05-22T00:07:37.020Z,55.76
2023-05-22T00:10:03.548Z,57.55
2023-05-22T00:12:30.158Z,55.99
2023-05-22T00:14:56.735Z,55.08
2023-05-22T00:17:23.494Z,52.79
2023-05-22T00:19:50.118Z,53.92
2023-05-22T00:22:16.667Z,52.97
2023-05-22T00:24:43.235Z,53.64
2023-05-22T00:27:09.798Z,54.22
2023-05-22T00:29:36.281Z,52.37
2023-05-22T00:32:02.930Z,53.34
2023-05-22T00:34:29.607Z,54.51
2023-05-22T00:36:56.250Z,53.89
2023-05-22T00:39:22.836Z,53.32
2023-05-22T00:41:49.415Z,54.16
2023-05-22T00:44:16.000Z,51.47
2023-05-22T00:46:42.639Z,51.01
2023-05-22T00:49:09.159Z,50.11
2023-05-22T00:51:35.623Z,49.47
2023-05-22T00:54:02.264Z,53.05
2023-05-22T00:56:28.793Z,50.67
2023-05-22T00:58:55.430Z,49.67
2023-05-22T01:01:22.028Z,51.57
2023-05-22T01:03:48.715Z,48.92
2023-05-22T01:06:15.377Z,48.14
2023-05-22T01:08:41.909Z,51.09
2023-05-22T01:11:08.464Z,50.40
2023-05-22T01:13:35.005Z,52.20
2023-05-22T01:16:01.700Z,50.89
2023-05-22T01:18:28.498Z,49.58
2023-05-22T01:20:54.953Z,51.78
2023-05-22T01:23:21.504Z,48.97
2023-05-22T01:25:48.089Z,51.04
2023-05-22T01:28:14.620Z,46.90
2023-05-22T01:30:41.246Z,49.46
2023-05-22T01:33:08.014Z,48.19
2023-05-22T01:35:34.743Z,47.45
2023-05-22T01:38:01.332Z,48.86
2023-05-22T01:40:27.909Z,48.40
2023-05-22T01:42:54.423Z,46.25
2023-05-22T01:45:21.007Z,47.40
2023-05-22T01:47:47.687Z,48.34
2023-05-22T01:50:14.351Z,46.49
2023-05-22T01:52:40.941Z,47.92
2023-05-22T01:55:07.527Z,46.15
2023-05-22T01:57:34.082Z,47.01
2023-05-22T02:00:00.573Z,45.10
2023-05-22T02:02:27.253Z,46.18
2023-05-22T02:04:53.920Z,47.26
2023-05-22T02:07:20.461Z,47.78
2023-05-22T02:09:46.979Z,46.94
2023-05-22T02:12:13.612Z,46.13
2023-05-22T02:14:40.230Z,44.43
2023-05-22T02:17:06.798Z,45.41
2023-05-22T02:19:33.391Z,45.34
2023-05-22T02:22:00.004Z,43.23
2023-05-22T02:24:26.618Z,44.11
2023-05-22T02:26:53.233Z,43.14
2023-05-22T02:29:19.787Z,44.65
2023-05-22T02:31:46.336Z,43.02
2023-05-22T02:34:15.843Z,43.76
2023-05-22T02:36:42.423Z,44.39
2023-05-22T02:39:08.957Z,46.48
2023-05-22T02:41:35.508Z,43.31
2023-05-22T02:44:02.027Z,43.40
2023-05-22T02:46:28.570Z,42.41
2023-05-22T02:48:55.177Z,42.24
2023-05-22T02:51:21.807Z,43.84
2023-05-22T02:53:48.422Z,41.65
2023-05-22T02:56:14.964Z,41.45
2023-05-22T02:58:41.467Z,45.21
2023-05-22T03:01:08.018Z,41.01
2023-05-22T03:03:34.883Z,42.09
2023-05-22T03:06:01.786Z,42.47
2023-05-22T03:08:28.528Z,42.89
2023-05-22T03:10:55.157Z,39.85
2023-05-22T03:13:21.779Z,41.64
2023-05-22T03:15:48.396Z,41.08
2023-05-22T03:18:14.939Z,40.28
2023-05-22T03:20:41.641Z,41.44
2023-05-22T03:23:08.271Z,41.39
2023-05-22T03:25:34.834Z,42.90
2023-05-22T03:28:01.352Z,41.99
2023-05-22T03:30:27.919Z,39.70
2023-05-22T03:32:54.543Z,39.93
2023-05-22T03:35:21.142Z,41.61
2023-05-22T03:37:47.705Z,40.36
2023-05-22T03:40:14.348Z,42.95
2023-05-22T03:42:40.926Z,39.14
2023-05-22T03:45:07.374Z,40.78
2023-05-22T03:47:33.969Z,41.39
2023-05-22T03:50:00.526Z,39.68
2023-05-22T03:52:27.040Z,37.21
2023-05-22T03:54:53.651Z,38.03
2023-05-22T03:57:20.298Z,37.81
2023-05-22T03:59:46.881Z,41.81
2023-05-22T04:02:13.522Z,38.97
2023-05-22T04:04:40.112Z,38.19
2023-05-22T04:07:06.716Z,39.53
2023-05-22T04:09:33.235Z,37.91
2023-05-22T04:11:59.782Z,40.45
2023-05-22T04:14:26.318Z,39.26
2023-05-22T04:16:52.896Z,40.55
2023-05-22T04:19:19.480Z,38.16
2023-05-22T04:21:46.091Z,38.06
2023-05-22T04:24:12.672Z,39.08
2023-05-22T04:26:41.729Z,38.23
2023-05-22T04:29:09.120Z,39.19
2023-05-22T04:31:35.693Z,36.75
2023-05-22T04:34:02.318Z,36.46
2023-05-22T04:36:28.933Z,37.76
2023-05-22T04:38:55.517Z,37.49
2023-05-22T04:41:22.712Z,35.65
2023-05-22T04:43:49.425Z,37.11
2023-05-22T04:46:15.991Z,37.82
2023-05-22T04:48:42.595Z,37.17
2023-05-22T04:51:09.216Z,36.34
2023-05-22T04:53:35.798Z,39.43
2023-05-22T04:56:02.331Z,37.03
2023-05-22T04:58:28.909Z,37.68
2023-05-22T05:00:55.508Z,40.62
2023-05-22T05:03:22.019Z,39.92
2023-05-22T05:05:48.561Z,40.10
2023-05-22T05:08:15.123Z,38.86
2023-05-22T05:10:41.787Z,40.48
2023-05-22T05:13:08.430Z,39.57
2023-05-22T05:15:34.969Z,40.51
2023-05-22T05:18:01.624Z,39.04
2023-05-22T05:20:28.333Z,40.79
2023-05-22T05:22:54.815Z,42.48
2023-05-22T05:25:21.283Z,42.24
2023-05-22T05:27:47.767Z,40.55
2023-05-22T05:30:14.241Z,42.32
2023-05-22T05:32:40.733Z,41.07
2023-05-22T05:35:07.259Z,42.23
2023-05-22T05:37:33.735Z,41.74
2023-05-22T05:40:00.231Z,40.05
2023-05-22T05:42:26.781Z,42.45
2023-05-22T05:44:53.358Z,42.76
2023-05-22T05:47:19.851Z,39.75
2023-05-22T05:49:46.374Z,43.90
2023-05-22T05:52:12.869Z,42.19
2023-05-22T05:54:39.411Z,41.42
2023-05-22T05:57:05.866Z,41.73
2023-05-22T05:59:32.431Z,43.50
2023-05-22T06:01:58.984Z,43.54
2023-05-22T06:04:25.531Z,43.97
2023-05-22T06:06:52.092Z,43.27
2023-05-22T06:09:18.623Z,44.23
2023-05-22T06:11:45.104Z,44.21
2023-05-22T06:14:11.641Z,44.18
2023-05-22T06:16:38.115Z,46.76
2023-05-22T06:19:04.661Z,46.55
2023-05-22T06:21:31.327Z,43.91
2023-05-22T06:23:57.832Z,44.66
2023-05-22T06:26:24.314Z,44.15
2023-05-22T06:28:50.869Z,44.10
2023-05-22T06:31:17.334Z,42.86
2023-05-22T06:33:43.939Z,43.64
2023-05-22T06:36:10.513Z,44.08
2023-05-22T06:38:37.099Z,45.27
2023-05-22T06:41:03.706Z,41.65
2023-05-22T06:43:30.220Z,44.95
2023-05-22T06:45:56.902Z,45.73
2023-05-22T06:48:23.480Z,44.33
2023-05-22T06:50:50.089Z,41.91
2023-05-22T06:53:16.570Z,44.58
2023-05-22T06:55:43.180Z,44.48
2023-05-22T06:58:09.732Z,44.55
2023-05-22T07:00:36.320Z,41.77
2023-05-22T07:03:02.922Z,43.06
2023-05-22T07:05:29.547Z,44.52
2023-05-22T07:07:56.290Z,44.65
2023-05-22T07:10:22.841Z,43.04
2023-05-22T07:12:49.387Z,44.10
2023-05-22T07:15:15.894Z,44.43
2023-05-22T07:17:42.445Z,43.46
2023-05-22T07:20:09.010Z,46.38
2023-05-22T07:22:35.621Z,47.30
2023-05-22T07:25:02.222Z,48.08
2023-05-22T07:27:28.782Z,46.90
2023-05-22T07:29:55.359Z,47.20
2023-05-22T07:32:21.977Z,48.01
2023-05-22T07:34:48.608Z,48.11
2023-05-22T07:37:15.233Z,47.07
2023-05-22T07:39:41.767Z,48.79
2023-05-22T07:42:08.310Z,47.87
2023-05-22T07:44:34.916Z,46.53
2023-05-22T07:47:01.474Z,49.17
2023-05-22T07:49:28.080Z,48.01
2023-05-22T07:51:54.626Z,49.63
2023-05-22T07:54:21.223Z,50.25
2023-05-22T07:56:47.833Z,47.55
2023-05-22T07:59:14.478Z,46.52
2023-05-22T08:01:41.097Z,48.08
2023-05-22T08:04:07.994Z,47.88
2023-05-22T08:06:34.877Z,47.19
2023-05-22T08:09:01.643Z,47.58
2023-05-22T08:11:28.184Z,48.78
2023-05-22T08:13:54.767Z,47.24
2023-05-22T08:16:21.408Z,46.41
2023-05-22T08:18:47.988Z,46.40
2023-05-22T08:21:14.523Z,48.08
2023-05-22T08:23:41.120Z,49.99
2023-05-22T08:26:07.701Z,46.72
2023-05-22T08:28:34.288Z,47.44
2023-05-22T08:31:00.881Z,46.20
2023-05-22T08:33:27.483Z,46.31
2023-05-22T08:35:54.051Z,47.66
2023-05-22T08:38:20.593Z,47.23
2023-05-22T08:40:47.352Z,46.08
2023-05-22T08:43:13.965Z,48.15
2023-05-22T08:45:40.547Z,45.32
2023-05-22T08:48:07.207Z,46.85
2023-05-22T08:50:33.908Z,48.20
2023-05-22T08:53:00.469Z,47.98
2023-05-22T08:55:26.998Z,46.95
2023-05-22T08:57:53.646Z,47.65
2023-05-22T09:00:20.255Z,47.49
2023-05-22T09:02:47.029Z,48.20
2023-05-22T09:05:13.572Z,47.81
2023-05-22T09:07:40.085Z,46.90
2023-05-22T09:10:06.655Z,48.15
2023-05-22T09:12:33.219Z,48.38
2023-05-22T09:14:59.766Z,47.10
2023-05-22T09:17:26.293Z,47.67
2023-05-22T09:19:52.881Z,47.78
2023-05-22T09:22:19.380Z,45.58
2023-05-22T09:24:46.479Z,48.47
2023-05-22T09:27:13.037Z,48.20
2023-05-22T09:29:39.643Z,46.17
2023-05-22T09:32:06.128Z,47.63
2023-05-22T09:34:32.619Z,47.01
2023-05-22T09:36:59.129Z,49.73
2023-05-22T09:39:25.685Z,51.50
2023-05-22T09:41:52.188Z,49.75
2023-05-22T09:44:18.684Z,49.80
2023-05-22T09:46:45.460Z,47.04
2023-05-22T09:49:15.072Z,50.30
2023-05-22T09:51:42.924Z,50.49
2023-05-22T09:54:09.561Z,50.65
2023-05-22T09:56:39.730Z,52.64
2023-05-22T09:59:06.908Z,49.65
2023-05-22T10:01:33.515Z,49.20
2023-05-22T10:04:00.094Z,49.04
2023-05-22T10:06:26.761Z,47.92
2023-05-22T10:08:53.306Z,50.26
2023-05-22T10:11:19.894Z,51.14
2023-05-22T10:13:46.526Z,50.14
2023-05-22T10:16:13.157Z,50.10
2023-05-22T10:18:39.819Z,50.28
2023-05-22T10:21:06.487Z,50.39
2023-05-22T10:23:33.028Z,49.41
2023-05-22T10:25:59.703Z,51.01
2023-05-22T10:28:26.257Z,53.42
2023-05-22T10:30:52.792Z,50.35
2023-05-22T10:33:19.497Z,50.69
2023-05-22T10:35:46.143Z,47.77
2023-05-22T10:38:12.891Z,46.64
2023-05-22T10:40:39.520Z,50.16
2023-05-22T10:43:06.166Z,49.53
2023-05-22T10:45:32.995Z,48.00
2023-05-22T10:47:59.881Z,50.32
2023-05-22T10:50:28.516Z,47.84
2023-05-22T10:52:55.017Z,48.29
2023-05-22T10:55:21.518Z,47.45
2023-05-22T10:57:48.213Z,48.44
2023-05-22T11:00:14.976Z,47.51
2023-05-22T11:02:42.418Z,49.16
2023-05-22T11:05:09.138Z,48.94
2023-05-22T11:07:35.764Z,52.55
2023-05-22T11:10:02.363Z,49.09
2023-05-22T11:12:28.986Z,50.43
2023-05-22T11:14:55.605Z,48.60
2023-05-22T11:17:22.155Z,49.67
2023-05-22T11:19:48.903Z,48.75
2023-05-22T11:22:15.504Z,50.95
2023-05-22T11:24:42.125Z,47.57
2023-05-22T11:27:08.784Z,48.39
2023-05-22T11:29:35.449Z,48.43
2023-05-22T11:32:01.968Z,46.40
2023-05-22T11:34:28.462Z,49.36
2023-05-22T11:36:55.078Z,51.63
2023-05-22T11:39:21.681Z,53.67
2023-05-22T11:41:48.243Z,51.12
2023-05-22T11:44:14.777Z,51.72
2023-05-22T11:46:41.412Z,53.90
2023-05-22T11:49:08.016Z,50.09
2023-05-22T11:51:34.570Z,53.64
2023-05-22T11:54:01.066Z,53.25
2023-05-22T11:56:27.554Z,54.35
2023-05-22T11:58:54.008Z,53.61
2023-05-22T12:01:20.499Z,54.74
2023-05-22T12:03:47.146Z,51.91
2023-05-22T12:06:15.809Z,55.18
2023-05-22T12:08:43.575Z,57.01
2023-05-22T12:11:10.129Z,54.05
2023-05-22T12:13:36.624Z,54.53
2023-05-22T12:16:03.152Z,55.96
2023-05-22T12:18:29.663Z,54.99
2023-05-22T12:20:56.269Z,55.06
2023-05-22T12:23:22.836Z,58.33
2023-05-22T12:25:49.416Z,56.98
2023-05-22T12:28:15.950Z,56.55
2023-05-22T12:30:42.607Z,54.74
2023-05-22T12:33:09.358Z,58.45
2023-05-22T12:35:36.058Z,52.41
2023-05-22T12:38:02.586Z,57.19
2023-05-22T12:40:29.180Z,56.29
2023-05-22T12:42:55.785Z,54.20
2023-05-22T12:45:22.451Z,54.31
2023-05-22T12:47:49.128Z,52.51
2023-05-22T12:50:15.682Z,54.31
2023-05-22T12:52:42.241Z,54.52
2023-05-22T12:55:08.844Z,55.96
2023-05-22T12:57:35.408Z,53.72
2023-05-22T13:00:03.004Z,53.84
2023-05-22T13:02:29.633Z,53.06
2023-05-22T13:04:56.235Z,56.50
2023-05-22T13:07:22.861Z,56.10
2023-05-22T13:09:49.489Z,74.69
2023-05-22T13:12:16.144Z,72.79
2023-05-22T13:14:42.843Z,64.08
2023-05-22T13:17:09.472Z,63.76
2023-05-22T13:19:36.142Z,67.78
2023-05-22T13:22:02.791Z,65.59
2023-05-22T13:24:29.404Z,63.47
2023-05-22T13:26:55.957Z,64.23
2023-05-22T13:29:22.506Z,64.25
2023-05-22T13:31:49.077Z,64.50
2023-05-22T13:34:15.703Z,61.32
2023-05-22T13:36:42.408Z,63.51
2023-05-22T13:39:08.941Z,68.78
2023-05-22T13:41:35.469Z,69.86
2023-05-22T13:44:02.023Z,69.27
2023-05-22T13:46:28.594Z,69.20
2023-05-22T13:48:55.160Z,68.75
2023-05-22T13:51:21.772Z,66.75
2023-05-22T13:53:48.336Z,66.76
2023-05-22T13:56:14.934Z,67.81
2023-05-22T13:58:41.484Z,66.76
2023-05-22T14:01:08.086Z,63.73
2023-05-22T14:03:34.777Z,62.42
2023-05-22T14:06:01.360Z,65.97
2023-05-22T14:08:27.950Z,68.20
2023-05-22T14:10:54.486Z,74.43
2023-05-22T14:13:21.050Z,71.55
2023-05-22T14:15:47.637Z,76.69
2023-05-22T14:18:14.315Z,78.68
2023-05-22T14:20:40.926Z,76.14
2023-05-22T14:23:07.464Z,78.98
2023-05-22T14:25:34.028Z,77.42
2023-05-22T14:28:00.607Z,76.74
2023-05-22T14:30:27.199Z,73.83
2023-05-22T14:32:53.956Z,76.88
2023-05-22T14:35:20.713Z,72.79
2023-05-22T14:37:47.369Z,71.05
2023-05-22T14:40:13.950Z,70.49
2023-05-22T14:42:40.520Z,72.94
2023-05-22T14:45:07.054Z,71.34
2023-05-22T14:47:33.712Z,67.68
2023-05-22T14:50:14.806Z,70.15
2023-05-22T14:52:45.351Z,68.99
2023-05-22T14:55:11.937Z,70.16
2023-05-22T14:57:38.510Z,86.10
2023-05-22T15:00:05.083Z,88.35
2023-05-22T15:02:31.708Z,87.99
2023-05-22T15:04:58.411Z,103.15
2023-05-22T15:07:32.373Z,105.62
2023-05-22T15:10:09.381Z,106.70
2023-05-22T15:12:35.971Z,114.24
2023-05-22T15:15:02.585Z,104.56
2023-05-22T15:17:29.265Z,104.34
2023-05-22T15:19:55.924Z,103.07
2023-05-22T15:22:22.514Z,105.32
2023-05-22T15:27:14.705Z,102.88
2023-05-22T15:29:41.328Z,98.97
2023-05-22T15:32:07.917Z,92.46
2023-05-22T15:34:34.425Z,94.24
2023-05-22T15:37:00.882Z,98.15
2023-05-22T15:39:27.449Z,111.28
2023-05-22T15:42:05.181Z,109.02
2023-05-22T15:44:32.896Z,104.35
2023-05-22T15:46:59.515Z,106.43
2023-05-22T15:49:27.965Z,107.18
2023-05-22T15:51:55.999Z,103.19
2023-05-22T15:54:23.934Z,109.07
2023-05-22T15:56:50.503Z,101.92
2023-05-22T15:59:17.102Z,100.48
2023-05-22T16:01:43.911Z,97.05
2023-05-22T16:04:10.764Z,96.40
2023-05-22T16:06:37.348Z,95.77
2023-05-22T16:09:03.938Z,92.02
2023-05-22T16:11:30.478Z,90.93
2023-05-22T16:13:57.070Z,92.10
2023-05-22T16:16:23.740Z,88.92
2023-05-22T16:18:50.342Z,86.48
2023-05-22T16:21:16.922Z,82.19
2023-05-22T16:23:43.466Z,73.31
2023-05-22T16:26:10.018Z,78.68
2023-05-22T16:28:36.573Z,71.92
2023-05-22T16:31:03.147Z,77.98
2023-05-22T16:33:29.743Z,78.19
2023-05-22T16:35:56.405Z,81.77
2023-05-22T16:38:23.013Z,78.65
2023-05-22T16:40:49.542Z,76.02
2023-05-22T16:43:16.192Z,77.00
2023-05-22T16:45:42.926Z,80.34
2023-05-22T16:48:09.624Z,80.28
2023-05-22T16:50:36.271Z,78.63
2023-05-22T16:53:02.877Z,76.81
2023-05-22T16:55:29.508Z,76.83
2023-05-22T16:57:56.087Z,73.56
2023-05-22T17:00:22.861Z,65.84
2023-05-22T17:02:49.567Z,67.34
2023-05-22T17:05:16.187Z,69.36
2023-05-22T17:07:42.861Z,70.52
2023-05-22T17:10:09.400Z,65.33
2023-05-22T17:12:35.968Z,64.03
2023-05-22T17:15:02.615Z,61.97
2023-05-22T17:17:29.262Z,62.09
2023-05-22T17:19:55.888Z,64.38
2023-05-22T17:22:25.492Z,62.77
2023-05-22T17:24:52.008Z,64.04
2023-05-22T17:27:34.424Z,61.61
2023-05-22T17:30:02.356Z,59.56
2023-05-22T17:32:29.234Z,60.18
2023-05-22T17:34:55.939Z,61.65
2023-05-22T17:37:22.532Z,60.09
2023-05-22T17:39:49.102Z,57.20
2023-05-22T17:42:15.674Z,58.16
2023-05-22T17:44:42.159Z,56.79
2023-05-22T17:47:08.618Z,56.88
2023-05-22T17:49:35.131Z,57.47
2023-05-22T17:52:01.696Z,59.47
2023-05-22T17:54:28.309Z,59.84
2023-05-22T17:56:54.844Z,57.11
2023-05-22T17:59:21.391Z,59.31
2023-05-22T18:01:48.006Z,65.89
2023-05-22T18:04:14.607Z,64.27
2023-05-22T18:06:41.168Z,60.07
2023-05-22T18:09:07.753Z,59.57
2023-05-22T18:11:34.327Z,60.68
2023-05-22T18:14:00.830Z,59.84
2023-05-22T18:16:27.361Z,63.06
2023-05-22T18:18:53.966Z,63.12
2023-05-22T18:21:20.560Z,62.27
2023-05-22T18:23:47.126Z,67.99
2023-05-22T18:26:13.855Z,73.60
2023-05-22T18:28:40.466Z,71.99
2023-05-22T18:31:07.085Z,88.29
2023-05-22T18:33:33.736Z,84.63
2023-05-22T18:36:00.228Z,86.45
2023-05-22T18:38:26.746Z,90.10
2023-05-22T18:40:53.303Z,89.30
2023-05-22T18:43:19.910Z,94.84
2023-05-22T18:45:46.444Z,94.97
2023-05-22T18:48:13.060Z,89.21
2023-05-22T18:50:40.068Z,93.49
2023-05-22T18:53:06.733Z,91.78
2023-05-22T18:55:33.250Z,89.01
2023-05-22T18:57:59.769Z,91.94
2023-05-22T19:00:26.384Z,90.87
2023-05-22T19:02:53.001Z,87.30
2023-05-22T19:05:19.494Z,80.95
2023-05-22T19:07:45.976Z,81.46
2023-05-22T19:10:12.568Z,82.91
2023-05-22T19:12:39.060Z,81.62
2023-05-22T19:15:05.593Z,84.11
2023-05-22T19:17:32.207Z,83.58
2023-05-22T19:19:58.743Z,80.40
2023-05-22T19:22:25.261Z,82.70
2023-05-22T19:24:51.875Z,83.20
2023-05-22T19:27:18.468Z,79.63
2023-05-22T19:29:45.097Z,80.31
2023-05-22T19:32:11.688Z,80.90
2023-05-22T19:34:38.209Z,79.08
2023-05-22T19:37:04.877Z,77.79
2023-05-22T19:39:31.720Z,78.99
2023-05-22T19:41:58.374Z,84.11
2023-05-22T19:44:24.999Z,77.60
2023-05-22T19:46:51.640Z,77.58
2023-05-22T19:49:18.303Z,75.48
2023-05-22T19:51:44.911Z,78.21
2023-05-22T19:54:11.565Z,77.01
2023-05-22T19:56:38.022Z,76.10
2023-05-22T19:59:04.736Z,91.61
2023-05-22T20:01:31.233Z,90.31
2023-05-22T20:03:57.948Z,86.62
2023-05-22T20:06:24.493Z,90.19
2023-05-22T20:08:51.115Z,86.62
2023-05-22T20:11:17.675Z,89.58
2023-05-22T20:13:45.550Z,86.96
2023-05-22T20:16:12.214Z,82.22
2023-05-22T20:18:38.820Z,81.42
2023-05-22T20:21:05.395Z,79.39
2023-05-22T20:23:31.984Z,75.88
2023-05-22T20:25:58.528Z,77.82
2023-05-22T20:28:25.057Z,75.70
2023-05-22T20:30:51.641Z,81.24
2023-05-22T20:33:18.226Z,77.30
2023-05-22T20:35:44.940Z,78.20
2023-05-22T20:38:11.601Z,76.59
2023-05-22T20:40:38.120Z,78.18
2023-05-22T20:43:04.789Z,75.46
2023-05-22T20:45:31.272Z,80.12
2023-05-22T20:47:57.931Z,81.42
2023-05-22T20:50:24.533Z,78.14
2023-05-22T20:52:51.157Z,76.73
2023-05-22T20:55:17.733Z,76.54
2023-05-22T20:57:44.200Z,78.78
2023-05-22T21:00:10.697Z,78.44
2023-05-22T21:02:37.241Z,78.54
2023-05-22T21:05:03.989Z,77.88
2023-05-22T21:07:30.494Z,77.58
2023-05-22T21:09:57.152Z,79.02
2023-05-22T21:12:23.789Z,78.74
2023-05-22T21:14:50.545Z,78.47
2023-05-22T21:17:17.167Z,72.76
2023-05-22T21:19:43.727Z,75.39
2023-05-22T21:22:10.281Z,75.39
2023-05-22T21:24:36.837Z,72.17
2023-05-22T21:27:03.381Z,73.34
2023-05-22T21:29:29.883Z,77.01
2023-05-22T21:31:56.562Z,74.84
2023-05-22T21:34:23.217Z,75.19
2023-05-22T21:36:49.791Z,75.52
2023-05-22T21:39:16.356Z,75.03
2023-05-22T21:41:42.899Z,73.35
2023-05-22T21:44:09.547Z,73.94
2023-05-22T21:46:36.139Z,75.61
2023-05-22T21:49:02.736Z,72.53
2023-05-22T21:51:29.290Z,71.11
2023-05-22T21:53:55.823Z,72.96
2023-05-22T21:56:22.367Z,71.68
2023-05-22T21:58:48.940Z,72.49
2023-05-22T22:01:15.512Z,71.43
2023-05-22T22:03:42.178Z,73.11
2023-05-22T22:06:08.866Z,72.82
2023-05-22T22:08:35.547Z,72.66
2023-05-22T22:11:02.124Z,70.62
2023-05-22T22:13:28.669Z,70.59
2023-05-22T22:15:55.199Z,69.78
2023-05-22T22:18:21.767Z,70.70
2023-05-22T22:20:48.524Z,70.40
2023-05-22T22:23:15.169Z,71.62
2023-05-22T22:25:41.634Z,69.08
2023-05-22T22:28:08.195Z,72.16
2023-05-22T22:30:34.749Z,68.61
2023-05-22T22:33:01.407Z,69.10
2023-05-22T22:35:28.156Z,67.56
2023-05-22T22:37:54.674Z,69.77
2023-05-22T22:40:21.264Z,69.62
2023-05-22T22:42:47.869Z,70.91
2023-05-22T22:45:14.338Z,66.20
2023-05-22T22:47:40.854Z,66.24
2023-05-22T22:50:07.500Z,69.34
2023-05-22T22:52:34.093Z,69.23
2023-05-22T22:55:01.694Z,66.87
2023-05-22T22:57:28.505Z,70.20
2023-05-22T22:59:55.063Z,68.40
2023-05-22T23:02:21.679Z,68.11
2023-05-22T23:04:48.411Z,68.39
2023-05-22T23:07:14.971Z,65.34
2023-05-22T23:09:41.449Z,68.32
2023-05-22T23:12:08.017Z,66.16
2023-05-22T23:14:34.552Z,66.37
2023-05-22T23:17:01.039Z,64.69
2023-05-22T23:19:27.759Z,65.65
2023-05-22T23:21:54.288Z,64.31
2023-05-22T23:24:20.854Z,66.42
2023-05-22T23:29:28.266Z,65.69
2023-05-22T23:31:54.883Z,65.44
2023-05-22T23:34:21.509Z,65.06
2023-05-22T23:36:48.051Z,64.61
2023-05-22T23:39:14.565Z,63.38
2023-05-22T23:41:41.116Z,65.80
2023-05-22T23:44:07.638Z,66.52
2023-05-22T23:46:34.225Z,67.33
2023-05-22T23:49:00.770Z,63.53
2023-05-22T23:51:27.278Z,63.59
2023-05-22T23:53:53.832Z,63.46
2023-05-22T23:56:21.409Z,63.68
2023-05-22T23:58:48.935Z,62.98
